sensor_id;sensor_type;location;lat;lon;timestamp;P1;durP1;ratioP1;P2;durP2;ratioP2
52918;SDS011;38793;52.690;6.812;2022-07-06T00:01:30;2.13;;;1.10;;
52918;SDS011;38793;52.690;6.812;2022-07-06T00:03:55;2.00;;;1.02;;
52918;SDS011;38793;52.690;6.812;2022-07-06T00:06:21;3.95;;;1.10;;
52918;SDS011;38793;52.690;6.812;2022-07-06T00:11:13;4.03;;;1.27;;
52918;SDS011;38793;52.690;6.812;2022-07-06T00:13:38;3.03;;;1.27;;
52918;SDS011;38793;52.690;6.812;2022-07-06T00:16:04;5.85;;;1.02;;
52918;SDS011;38793;52.690;6.812;2022-07-06T00:18:30;2.10;;;0.90;;
52918;SDS011;38793;52.690;6.812;2022-07-06T00:20:55;3.83;;;1.55;;
52918;SDS011;38793;52.690;6.812;2022-07-06T00:23:21;6.47;;;1.15;;
52918;SDS011;38793;52.690;6.812;2022-07-06T00:25:47;2.75;;;1.30;;
52918;SDS011;38793;52.690;6.812;2022-07-06T00:28:13;14.30;;;1.00;;
52918;SDS011;38793;52.690;6.812;2022-07-06T00:30:39;5.47;;;0.70;;
52918;SDS011;38793;52.690;6.812;2022-07-06T00:33:05;3.22;;;1.38;;
52918;SDS011;38793;52.690;6.812;2022-07-06T00:35:30;4.32;;;0.90;;
52918;SDS011;38793;52.690;6.812;2022-07-06T00:37:56;4.13;;;1.20;;
52918;SDS011;38793;52.690;6.812;2022-07-06T00:40:21;1.35;;;1.00;;
52918;SDS011;38793;52.690;6.812;2022-07-06T00:42:47;5.40;;;1.25;;
52918;SDS011;38793;52.690;6.812;2022-07-06T00:45:14;2.85;;;1.23;;
52918;SDS011;38793;52.690;6.812;2022-07-06T00:47:40;5.43;;;1.30;;
52918;SDS011;38793;52.690;6.812;2022-07-06T00:50:07;1.85;;;1.00;;
52918;SDS011;38793;52.690;6.812;2022-07-06T00:52:50;7.55;;;1.02;;
52918;SDS011;38793;52.690;6.812;2022-07-06T00:55:21;2.05;;;0.57;;
52918;SDS011;38793;52.690;6.812;2022-07-06T00:57:49;2.72;;;0.93;;
52918;SDS011;38793;52.690;6.812;2022-07-06T01:00:17;4.05;;;1.08;;
52918;SDS011;38793;52.690;6.812;2022-07-06T01:02:45;5.90;;;1.33;;
52918;SDS011;38793;52.690;6.812;2022-07-06T01:05:11;3.97;;;1.35;;
52918;SDS011;38793;52.690;6.812;2022-07-06T01:07:39;1.48;;;0.95;;
52918;SDS011;38793;52.690;6.812;2022-07-06T01:10:06;5.93;;;1.58;;
52918;SDS011;38793;52.690;6.812;2022-07-06T01:12:36;4.50;;;1.58;;
52918;SDS011;38793;52.690;6.812;2022-07-06T01:15:05;4.43;;;1.30;;
52918;SDS011;38793;52.690;6.812;2022-07-06T01:17:33;4.18;;;1.13;;
52918;SDS011;38793;52.690;6.812;2022-07-06T01:22:38;2.83;;;0.98;;
52918;SDS011;38793;52.690;6.812;2022-07-06T01:25:04;3.90;;;1.20;;
52918;SDS011;38793;52.690;6.812;2022-07-06T01:27:31;3.45;;;1.00;;
52918;SDS011;38793;52.690;6.812;2022-07-06T01:29:59;3.63;;;1.50;;
52918;SDS011;38793;52.690;6.812;2022-07-06T01:32:25;5.40;;;1.08;;
52918;SDS011;38793;52.690;6.812;2022-07-06T01:34:50;1.90;;;0.85;;
52918;SDS011;38793;52.690;6.812;2022-07-06T01:37:16;3.10;;;1.20;;
52918;SDS011;38793;52.690;6.812;2022-07-06T01:39:42;2.30;;;1.17;;
52918;SDS011;38793;52.690;6.812;2022-07-06T01:42:07;2.80;;;0.83;;
52918;SDS011;38793;52.690;6.812;2022-07-06T01:44:33;4.05;;;1.05;;
52918;SDS011;38793;52.690;6.812;2022-07-06T01:46:58;3.58;;;1.05;;
52918;SDS011;38793;52.690;6.812;2022-07-06T01:49:24;5.97;;;1.08;;
52918;SDS011;38793;52.690;6.812;2022-07-06T01:51:49;2.90;;;0.80;;
52918;SDS011;38793;52.690;6.812;2022-07-06T01:54:15;7.53;;;1.25;;
52918;SDS011;38793;52.690;6.812;2022-07-06T01:56:40;2.25;;;0.90;;
52918;SDS011;38793;52.690;6.812;2022-07-06T01:59:06;5.00;;;1.00;;
52918;SDS011;38793;52.690;6.812;2022-07-06T02:01:32;2.80;;;1.27;;
52918;SDS011;38793;52.690;6.812;2022-07-06T02:03:57;5.53;;;1.65;;
52918;SDS011;38793;52.690;6.812;2022-07-06T02:06:23;3.08;;;1.13;;
52918;SDS011;38793;52.690;6.812;2022-07-06T02:08:48;4.55;;;1.48;;
52918;SDS011;38793;52.690;6.812;2022-07-06T02:11:16;4.95;;;1.77;;
52918;SDS011;38793;52.690;6.812;2022-07-06T02:13:42;4.72;;;1.60;;
52918;SDS011;38793;52.690;6.812;2022-07-06T02:16:07;3.83;;;1.33;;
52918;SDS011;38793;52.690;6.812;2022-07-06T02:18:33;2.63;;;1.17;;
52918;SDS011;38793;52.690;6.812;2022-07-06T02:20:59;1.38;;;1.00;;
52918;SDS011;38793;52.690;6.812;2022-07-06T02:23:24;3.75;;;1.08;;
52918;SDS011;38793;52.690;6.812;2022-07-06T02:28:16;5.68;;;0.90;;
52918;SDS011;38793;52.690;6.812;2022-07-06T02:30:42;3.05;;;1.30;;
52918;SDS011;38793;52.690;6.812;2022-07-06T02:33:07;3.90;;;1.33;;
52918;SDS011;38793;52.690;6.812;2022-07-06T02:35:33;4.03;;;1.17;;
52918;SDS011;38793;52.690;6.812;2022-07-06T02:37:59;3.13;;;0.93;;
52918;SDS011;38793;52.690;6.812;2022-07-06T02:40:25;2.33;;;1.63;;
52918;SDS011;38793;52.690;6.812;2022-07-06T02:42:50;3.92;;;0.95;;
52918;SDS011;38793;52.690;6.812;2022-07-06T02:45:16;2.42;;;0.98;;
52918;SDS011;38793;52.690;6.812;2022-07-06T02:47:41;3.28;;;1.20;;
52918;SDS011;38793;52.690;6.812;2022-07-06T02:50:07;2.42;;;0.98;;
52918;SDS011;38793;52.690;6.812;2022-07-06T02:52:33;4.22;;;1.38;;
52918;SDS011;38793;52.690;6.812;2022-07-06T02:54:58;3.83;;;1.17;;
52918;SDS011;38793;52.690;6.812;2022-07-06T02:57:24;2.75;;;0.98;;
52918;SDS011;38793;52.690;6.812;2022-07-06T02:59:49;4.45;;;1.35;;
52918;SDS011;38793;52.690;6.812;2022-07-06T03:02:18;1.42;;;1.05;;
52918;SDS011;38793;52.690;6.812;2022-07-06T03:04:44;6.78;;;1.25;;
52918;SDS011;38793;52.690;6.812;2022-07-06T03:07:09;4.00;;;0.90;;
52918;SDS011;38793;52.690;6.812;2022-07-06T03:09:35;5.45;;;1.05;;
52918;SDS011;38793;52.690;6.812;2022-07-06T03:12:01;5.18;;;1.17;;
52918;SDS011;38793;52.690;6.812;2022-07-06T03:14:26;3.05;;;1.25;;
52918;SDS011;38793;52.690;6.812;2022-07-06T03:16:52;3.80;;;0.98;;
52918;SDS011;38793;52.690;6.812;2022-07-06T03:19:18;3.92;;;1.00;;
52918;SDS011;38793;52.690;6.812;2022-07-06T03:21:44;2.97;;;1.17;;
52918;SDS011;38793;52.690;6.812;2022-07-06T03:24:09;5.05;;;1.35;;
52918;SDS011;38793;52.690;6.812;2022-07-06T03:26:35;2.67;;;1.10;;
52918;SDS011;38793;52.690;6.812;2022-07-06T03:29:00;4.82;;;1.30;;
52918;SDS011;38793;52.690;6.812;2022-07-06T03:31:26;5.68;;;1.42;;
52918;SDS011;38793;52.690;6.812;2022-07-06T03:33:52;3.28;;;1.85;;
52918;SDS011;38793;52.690;6.812;2022-07-06T03:36:17;4.35;;;1.42;;
52918;SDS011;38793;52.690;6.812;2022-07-06T03:38:43;4.20;;;1.45;;
52918;SDS011;38793;52.690;6.812;2022-07-06T03:41:08;2.35;;;2.05;;
52918;SDS011;38793;52.690;6.812;2022-07-06T03:43:34;3.78;;;1.27;;
52918;SDS011;38793;52.690;6.812;2022-07-06T03:46:00;4.25;;;1.30;;
52918;SDS011;38793;52.690;6.812;2022-07-06T03:48:26;4.72;;;1.63;;
52918;SDS011;38793;52.690;6.812;2022-07-06T03:50:51;3.45;;;1.35;;
52918;SDS011;38793;52.690;6.812;2022-07-06T03:53:17;4.80;;;1.92;;
52918;SDS011;38793;52.690;6.812;2022-07-06T03:55:43;5.85;;;2.15;;
52918;SDS011;38793;52.690;6.812;2022-07-06T03:58:08;2.25;;;1.45;;
52918;SDS011;38793;52.690;6.812;2022-07-06T04:00:34;10.43;;;1.70;;
52918;SDS011;38793;52.690;6.812;2022-07-06T04:03:00;3.35;;;1.80;;
52918;SDS011;38793;52.690;6.812;2022-07-06T04:05:26;9.93;;;1.80;;
52918;SDS011;38793;52.690;6.812;2022-07-06T04:07:51;5.85;;;1.85;;
52918;SDS011;38793;52.690;6.812;2022-07-06T04:10:17;3.50;;;1.45;;
52918;SDS011;38793;52.690;6.812;2022-07-06T04:12:43;1.42;;;1.15;;
52918;SDS011;38793;52.690;6.812;2022-07-06T04:15:09;6.10;;;1.77;;
52918;SDS011;38793;52.690;6.812;2022-07-06T04:17:36;3.28;;;1.40;;
52918;SDS011;38793;52.690;6.812;2022-07-06T04:20:17;5.68;;;1.92;;
52918;SDS011;38793;52.690;6.812;2022-07-06T04:22:43;2.92;;;1.30;;
52918;SDS011;38793;52.690;6.812;2022-07-06T04:25:08;2.42;;;1.92;;
52918;SDS011;38793;52.690;6.812;2022-07-06T04:27:34;7.70;;;1.55;;
52918;SDS011;38793;52.690;6.812;2022-07-06T04:30:00;3.78;;;1.10;;
52918;SDS011;38793;52.690;6.812;2022-07-06T04:32:26;4.75;;;1.58;;
52918;SDS011;38793;52.690;6.812;2022-07-06T04:34:52;5.18;;;1.73;;
52918;SDS011;38793;52.690;6.812;2022-07-06T04:37:17;1.45;;;1.15;;
52918;SDS011;38793;52.690;6.812;2022-07-06T04:39:43;3.72;;;1.58;;
52918;SDS011;38793;52.690;6.812;2022-07-06T04:42:08;6.13;;;1.83;;
52918;SDS011;38793;52.690;6.812;2022-07-06T04:44:34;3.92;;;1.52;;
52918;SDS011;38793;52.690;6.812;2022-07-06T04:47:00;8.52;;;2.35;;
52918;SDS011;38793;52.690;6.812;2022-07-06T04:49:25;4.38;;;1.58;;
52918;SDS011;38793;52.690;6.812;2022-07-06T04:51:51;3.13;;;1.50;;
52918;SDS011;38793;52.690;6.812;2022-07-06T04:54:16;6.13;;;2.03;;
52918;SDS011;38793;52.690;6.812;2022-07-06T04:56:42;6.03;;;1.60;;
52918;SDS011;38793;52.690;6.812;2022-07-06T04:59:07;3.97;;;1.88;;
52918;SDS011;38793;52.690;6.812;2022-07-06T05:01:33;7.18;;;1.50;;
52918;SDS011;38793;52.690;6.812;2022-07-06T05:03:59;1.73;;;1.00;;
52918;SDS011;38793;52.690;6.812;2022-07-06T05:06:24;3.65;;;1.17;;
52918;SDS011;38793;52.690;6.812;2022-07-06T05:08:50;2.00;;;1.27;;
52918;SDS011;38793;52.690;6.812;2022-07-06T05:11:16;10.85;;;1.48;;
52918;SDS011;38793;52.690;6.812;2022-07-06T05:13:41;3.47;;;1.23;;
52918;SDS011;38793;52.690;6.812;2022-07-06T05:16:07;3.10;;;1.38;;
52918;SDS011;38793;52.690;6.812;2022-07-06T05:18:32;5.93;;;1.58;;
52918;SDS011;38793;52.690;6.812;2022-07-06T05:20:58;3.80;;;1.15;;
52918;SDS011;38793;52.690;6.812;2022-07-06T05:23:23;2.30;;;0.90;;
52918;SDS011;38793;52.690;6.812;2022-07-06T05:25:49;3.97;;;0.95;;
52918;SDS011;38793;52.690;6.812;2022-07-06T05:28:15;5.27;;;0.97;;
52918;SDS011;38793;52.690;6.812;2022-07-06T05:30:40;1.92;;;1.23;;
52918;SDS011;38793;52.690;6.812;2022-07-06T05:33:06;3.50;;;0.73;;
52918;SDS011;38793;52.690;6.812;2022-07-06T05:35:31;6.85;;;1.52;;
52918;SDS011;38793;52.690;6.812;2022-07-06T05:37:57;3.47;;;0.80;;
52918;SDS011;38793;52.690;6.812;2022-07-06T05:40:22;4.53;;;1.35;;
52918;SDS011;38793;52.690;6.812;2022-07-06T05:42:48;5.07;;;1.27;;
52918;SDS011;38793;52.690;6.812;2022-07-06T05:45:13;2.40;;;0.80;;
52918;SDS011;38793;52.690;6.812;2022-07-06T05:47:39;1.63;;;0.93;;
52918;SDS011;38793;52.690;6.812;2022-07-06T05:50:25;1.92;;;1.00;;
52918;SDS011;38793;52.690;6.812;2022-07-06T05:52:57;3.33;;;0.80;;
52918;SDS011;38793;52.690;6.812;2022-07-06T05:55:28;3.55;;;0.68;;
52918;SDS011;38793;52.690;6.812;2022-07-06T05:57:54;4.28;;;0.82;;
52918;SDS011;38793;52.690;6.812;2022-07-06T06:00:20;2.78;;;0.80;;
52918;SDS011;38793;52.690;6.812;2022-07-06T06:02:50;4.55;;;1.02;;
52918;SDS011;38793;52.690;6.812;2022-07-06T06:05:17;2.67;;;0.40;;
52918;SDS011;38793;52.690;6.812;2022-07-06T06:10:09;4.80;;;0.52;;
52918;SDS011;38793;52.690;6.812;2022-07-06T06:12:37;4.15;;;1.00;;
52918;SDS011;38793;52.690;6.812;2022-07-06T06:17:29;3.80;;;0.90;;
52918;SDS011;38793;52.690;6.812;2022-07-06T06:22:21;2.20;;;0.30;;
52918;SDS011;38793;52.690;6.812;2022-07-06T06:24:47;7.55;;;0.57;;
52918;SDS011;38793;52.690;6.812;2022-07-06T06:27:12;5.60;;;0.40;;
52918;SDS011;38793;52.690;6.812;2022-07-06T06:29:38;2.13;;;0.20;;
52918;SDS011;38793;52.690;6.812;2022-07-06T06:32:04;3.20;;;0.40;;
52918;SDS011;38793;52.690;6.812;2022-07-06T06:34:30;4.78;;;0.25;;
52918;SDS011;38793;52.690;6.812;2022-07-06T06:36:56;2.65;;;0.75;;
52918;SDS011;38793;52.690;6.812;2022-07-06T06:39:22;1.65;;;0.50;;
52918;SDS011;38793;52.690;6.812;2022-07-06T06:41:48;2.28;;;0.73;;
52918;SDS011;38793;52.690;6.812;2022-07-06T06:44:13;3.45;;;0.30;;
52918;SDS011;38793;52.690;6.812;2022-07-06T06:46:39;1.85;;;0.35;;
52918;SDS011;38793;52.690;6.812;2022-07-06T06:49:05;4.95;;;0.43;;
52918;SDS011;38793;52.690;6.812;2022-07-06T06:51:31;8.57;;;0.93;;
52918;SDS011;38793;52.690;6.812;2022-07-06T06:53:57;4.97;;;0.20;;
52918;SDS011;38793;52.690;6.812;2022-07-06T06:56:23;6.85;;;0.93;;
52918;SDS011;38793;52.690;6.812;2022-07-06T06:58:49;1.83;;;0.20;;
52918;SDS011;38793;52.690;6.812;2022-07-06T07:01:14;1.48;;;0.10;;
52918;SDS011;38793;52.690;6.812;2022-07-06T07:03:40;2.03;;;0.20;;
52918;SDS011;38793;52.690;6.812;2022-07-06T07:06:05;3.67;;;0.30;;
52918;SDS011;38793;52.690;6.812;2022-07-06T07:08:31;3.40;;;0.25;;
52918;SDS011;38793;52.690;6.812;2022-07-06T07:10:57;2.13;;;0.30;;
52918;SDS011;38793;52.690;6.812;2022-07-06T07:13:23;3.88;;;0.25;;
52918;SDS011;38793;52.690;6.812;2022-07-06T07:15:48;2.70;;;0.20;;
52918;SDS011;38793;52.690;6.812;2022-07-06T07:18:14;8.90;;;1.92;;
52918;SDS011;38793;52.690;6.812;2022-07-06T07:20:39;2.72;;;0.30;;
52918;SDS011;38793;52.690;6.812;2022-07-06T07:23:05;6.05;;;0.30;;
52918;SDS011;38793;52.690;6.812;2022-07-06T07:25:30;3.92;;;0.68;;
52918;SDS011;38793;52.690;6.812;2022-07-06T07:27:56;3.78;;;0.13;;
52918;SDS011;38793;52.690;6.812;2022-07-06T07:30:22;1.75;;;0.20;;
52918;SDS011;38793;52.690;6.812;2022-07-06T07:32:47;6.32;;;0.55;;
52918;SDS011;38793;52.690;6.812;2022-07-06T07:35:13;2.83;;;0.20;;
52918;SDS011;38793;52.690;6.812;2022-07-06T07:37:39;1.50;;;0.10;;
52918;SDS011;38793;52.690;6.812;2022-07-06T07:40:04;3.25;;;0.20;;
52918;SDS011;38793;52.690;6.812;2022-07-06T07:42:31;1.95;;;0.10;;
52918;SDS011;38793;52.690;6.812;2022-07-06T07:44:57;3.03;;;0.45;;
52918;SDS011;38793;52.690;6.812;2022-07-06T07:47:23;5.22;;;0.30;;
52918;SDS011;38793;52.690;6.812;2022-07-06T07:49:49;5.97;;;0.20;;
52918;SDS011;38793;52.690;6.812;2022-07-06T07:52:14;0.95;;;0.10;;
52918;SDS011;38793;52.690;6.812;2022-07-06T07:54:40;4.93;;;0.20;;
52918;SDS011;38793;52.690;6.812;2022-07-06T07:57:06;1.13;;;0.10;;
52918;SDS011;38793;52.690;6.812;2022-07-06T07:59:31;1.83;;;0.20;;
52918;SDS011;38793;52.690;6.812;2022-07-06T08:01:57;5.63;;;0.40;;
52918;SDS011;38793;52.690;6.812;2022-07-06T08:04:23;2.25;;;0.20;;
52918;SDS011;38793;52.690;6.812;2022-07-06T08:06:48;2.50;;;0.30;;
52918;SDS011;38793;52.690;6.812;2022-07-06T08:09:14;2.58;;;0.10;;
52918;SDS011;38793;52.690;6.812;2022-07-06T08:11:41;3.20;;;0.20;;
52918;SDS011;38793;52.690;6.812;2022-07-06T08:14:07;6.22;;;0.25;;
52918;SDS011;38793;52.690;6.812;2022-07-06T08:16:34;3.60;;;0.10;;
52918;SDS011;38793;52.690;6.812;2022-07-06T08:18:59;2.30;;;0.30;;
52918;SDS011;38793;52.690;6.812;2022-07-06T08:21:25;1.65;;;0.22;;
52918;SDS011;38793;52.690;6.812;2022-07-06T08:23:50;2.47;;;0.17;;
52918;SDS011;38793;52.690;6.812;2022-07-06T08:26:16;3.13;;;0.43;;
52918;SDS011;38793;52.690;6.812;2022-07-06T08:28:42;2.72;;;0.20;;
52918;SDS011;38793;52.690;6.812;2022-07-06T08:31:08;0.98;;;0.30;;
52918;SDS011;38793;52.690;6.812;2022-07-06T08:33:33;3.25;;;0.63;;
52918;SDS011;38793;52.690;6.812;2022-07-06T08:35:59;1.00;;;0.10;;
52918;SDS011;38793;52.690;6.812;2022-07-06T08:38:24;0.63;;;0.15;;
52918;SDS011;38793;52.690;6.812;2022-07-06T08:40:50;2.40;;;0.20;;
52918;SDS011;38793;52.690;6.812;2022-07-06T08:43:16;1.77;;;0.17;;
52918;SDS011;38793;52.690;6.812;2022-07-06T08:45:42;0.55;;;0.10;;
52918;SDS011;38793;52.690;6.812;2022-07-06T08:48:09;4.22;;;0.20;;
52918;SDS011;38793;52.690;6.812;2022-07-06T08:50:36;0.77;;;0.10;;
52918;SDS011;38793;52.690;6.812;2022-07-06T08:53:03;3.45;;;0.35;;
52918;SDS011;38793;52.690;6.812;2022-07-06T08:55:29;3.40;;;0.10;;
52918;SDS011;38793;52.690;6.812;2022-07-06T08:57:55;5.15;;;0.20;;
52918;SDS011;38793;52.690;6.812;2022-07-06T09:00:22;1.20;;;0.20;;
52918;SDS011;38793;52.690;6.812;2022-07-06T09:02:49;3.28;;;0.15;;
52918;SDS011;38793;52.690;6.812;2022-07-06T09:05:16;2.17;;;0.20;;
52918;SDS011;38793;52.690;6.812;2022-07-06T09:07:43;7.22;;;0.15;;
52918;SDS011;38793;52.690;6.812;2022-07-06T09:10:13;1.63;;;0.03;;
52918;SDS011;38793;52.690;6.812;2022-07-06T09:12:40;2.05;;;0.13;;
52918;SDS011;38793;52.690;6.812;2022-07-06T09:15:06;1.65;;;0.10;;
52918;SDS011;38793;52.690;6.812;2022-07-06T09:17:32;1.67;;;0.47;;
52918;SDS011;38793;52.690;6.812;2022-07-06T09:19:57;3.15;;;0.63;;
52918;SDS011;38793;52.690;6.812;2022-07-06T09:22:27;2.25;;;0.10;;
52918;SDS011;38793;52.690;6.812;2022-07-06T09:27:31;4.57;;;0.10;;
52918;SDS011;38793;52.690;6.812;2022-07-06T09:30:02;0.60;;;0.05;;
52918;SDS011;38793;52.690;6.812;2022-07-06T09:32:28;2.13;;;0.28;;
52918;SDS011;38793;52.690;6.812;2022-07-06T09:34:53;2.35;;;0.20;;
52918;SDS011;38793;52.690;6.812;2022-07-06T09:37:20;5.45;;;0.35;;
52918;SDS011;38793;52.690;6.812;2022-07-06T09:39:46;6.15;;;0.13;;
52918;SDS011;38793;52.690;6.812;2022-07-06T09:42:12;3.72;;;0.20;;
52918;SDS011;38793;52.690;6.812;2022-07-06T09:44:38;0.60;;;0.13;;
52918;SDS011;38793;52.690;6.812;2022-07-06T09:47:09;5.43;;;0.80;;
52918;SDS011;38793;52.690;6.812;2022-07-06T09:49:36;0.82;;;0.10;;
52918;SDS011;38793;52.690;6.812;2022-07-06T09:52:04;3.17;;;0.10;;
52918;SDS011;38793;52.690;6.812;2022-07-06T09:54:32;5.55;;;0.52;;
52918;SDS011;38793;52.690;6.812;2022-07-06T09:56:59;1.70;;;0.30;;
52918;SDS011;38793;52.690;6.812;2022-07-06T09:59:26;1.48;;;0.25;;
52918;SDS011;38793;52.690;6.812;2022-07-06T10:01:57;1.38;;;0.10;;
52918;SDS011;38793;52.690;6.812;2022-07-06T10:04:27;2.63;;;0.20;;
52918;SDS011;38793;52.690;6.812;2022-07-06T10:06:54;4.32;;;0.98;;
52918;SDS011;38793;52.690;6.812;2022-07-06T10:09:21;1.38;;;0.17;;
52918;SDS011;38793;52.690;6.812;2022-07-06T10:14:52;1.75;;;0.10;;
52918;SDS011;38793;52.690;6.812;2022-07-06T10:17:10;0.98;;;0.10;;
52918;SDS011;38793;52.690;6.812;2022-07-06T10:19:38;1.38;;;0.17;;
52918;SDS011;38793;52.690;6.812;2022-07-06T10:22:05;1.42;;;0.10;;
52918;SDS011;38793;52.690;6.812;2022-07-06T10:24:32;2.90;;;0.20;;
52918;SDS011;38793;52.690;6.812;2022-07-06T10:27:04;1.70;;;0.00;;
52918;SDS011;38793;52.690;6.812;2022-07-06T10:31:56;1.60;;;0.10;;
52918;SDS011;38793;52.690;6.812;2022-07-06T10:34:22;0.60;;;0.17;;
52918;SDS011;38793;52.690;6.812;2022-07-06T10:36:49;1.73;;;0.10;;
52918;SDS011;38793;52.690;6.812;2022-07-06T10:39:16;2.42;;;0.38;;
52918;SDS011;38793;52.690;6.812;2022-07-06T10:45:07;1.33;;;0.10;;
52918;SDS011;38793;52.690;6.812;2022-07-06T10:47:34;9.13;;;0.17;;
52918;SDS011;38793;52.690;6.812;2022-07-06T10:50:00;0.85;;;0.00;;
52918;SDS011;38793;52.690;6.812;2022-07-06T10:55:31;1.95;;;0.10;;
52918;SDS011;38793;52.690;6.812;2022-07-06T10:57:58;0.22;;;0.08;;
52918;SDS011;38793;52.690;6.812;2022-07-06T11:00:25;1.73;;;0.10;;
52918;SDS011;38793;52.690;6.812;2022-07-06T11:02:50;1.20;;;0.10;;
52918;SDS011;38793;52.690;6.812;2022-07-06T11:08:10;0.63;;;0.20;;
52918;SDS011;38793;52.690;6.812;2022-07-06T11:10:48;5.25;;;0.47;;
52918;SDS011;38793;52.690;6.812;2022-07-06T11:13:26;3.42;;;0.20;;
52918;SDS011;38793;52.690;6.812;2022-07-06T11:15:59;1.63;;;0.10;;
52918;SDS011;38793;52.690;6.812;2022-07-06T11:18:27;2.28;;;0.20;;
52918;SDS011;38793;52.690;6.812;2022-07-06T11:24:00;1.05;;;0.10;;
52918;SDS011;38793;52.690;6.812;2022-07-06T11:26:26;2.03;;;0.20;;
52918;SDS011;38793;52.690;6.812;2022-07-06T11:28:52;1.40;;;0.30;;
52918;SDS011;38793;52.690;6.812;2022-07-06T11:31:18;1.77;;;0.40;;
52918;SDS011;38793;52.690;6.812;2022-07-06T11:33:45;0.90;;;0.30;;
52918;SDS011;38793;52.690;6.812;2022-07-06T11:38:45;0.63;;;0.10;;
52918;SDS011;38793;52.690;6.812;2022-07-06T11:41:11;1.08;;;0.10;;
52918;SDS011;38793;52.690;6.812;2022-07-06T11:43:40;1.67;;;0.10;;
52918;SDS011;38793;52.690;6.812;2022-07-06T11:48:49;2.30;;;0.20;;
52918;SDS011;38793;52.690;6.812;2022-07-06T11:51:16;1.27;;;0.10;;
52918;SDS011;38793;52.690;6.812;2022-07-06T11:53:45;2.30;;;0.10;;
52918;SDS011;38793;52.690;6.812;2022-07-06T11:56:12;1.10;;;0.15;;
52918;SDS011;38793;52.690;6.812;2022-07-06T11:58:40;2.55;;;0.10;;
52918;SDS011;38793;52.690;6.812;2022-07-06T12:01:09;0.95;;;0.10;;
52918;SDS011;38793;52.690;6.812;2022-07-06T12:03:35;0.82;;;0.20;;
52918;SDS011;38793;52.690;6.812;2022-07-06T12:08:30;2.33;;;0.00;;
52918;SDS011;38793;52.690;6.812;2022-07-06T12:10:58;0.20;;;0.00;;
52918;SDS011;38793;52.690;6.812;2022-07-06T12:13:25;2.50;;;0.20;;
52918;SDS011;38793;52.690;6.812;2022-07-06T12:15:50;1.67;;;0.10;;
52918;SDS011;38793;52.690;6.812;2022-07-06T12:20:41;3.40;;;0.15;;
52918;SDS011;38793;52.690;6.812;2022-07-06T12:23:08;9.25;;;0.40;;
52918;SDS011;38793;52.690;6.812;2022-07-06T12:25:34;1.45;;;0.10;;
52918;SDS011;38793;52.690;6.812;2022-07-06T12:28:01;3.08;;;0.43;;
52918;SDS011;38793;52.690;6.812;2022-07-06T12:30:27;2.45;;;0.20;;
52918;SDS011;38793;52.690;6.812;2022-07-06T12:35:36;0.82;;;0.10;;
52918;SDS011;38793;52.690;6.812;2022-07-06T12:38:02;1.40;;;0.20;;
52918;SDS011;38793;52.690;6.812;2022-07-06T12:42:54;5.05;;;0.10;;
52918;SDS011;38793;52.690;6.812;2022-07-06T12:45:19;2.05;;;0.08;;
52918;SDS011;38793;52.690;6.812;2022-07-06T12:48:05;0.68;;;0.10;;
52918;SDS011;38793;52.690;6.812;2022-07-06T12:50:32;3.33;;;0.20;;
52918;SDS011;38793;52.690;6.812;2022-07-06T12:53:02;4.35;;;0.10;;
52918;SDS011;38793;52.690;6.812;2022-07-06T12:55:29;3.83;;;0.22;;
52918;SDS011;38793;52.690;6.812;2022-07-06T12:57:55;1.05;;;0.20;;
52918;SDS011;38793;52.690;6.812;2022-07-06T13:00:22;1.38;;;0.20;;
52918;SDS011;38793;52.690;6.812;2022-07-06T13:02:49;1.15;;;0.30;;
52918;SDS011;38793;52.690;6.812;2022-07-06T13:05:23;2.53;;;0.20;;
52918;SDS011;38793;52.690;6.812;2022-07-06T13:07:53;1.95;;;0.20;;
52918;SDS011;38793;52.690;6.812;2022-07-06T13:10:20;1.40;;;0.10;;
52918;SDS011;38793;52.690;6.812;2022-07-06T13:15:12;2.00;;;0.30;;
52918;SDS011;38793;52.690;6.812;2022-07-06T13:17:38;0.95;;;0.20;;
52918;SDS011;38793;52.690;6.812;2022-07-06T13:22:29;2.28;;;0.20;;
52918;SDS011;38793;52.690;6.812;2022-07-06T13:24:55;2.05;;;0.10;;
52918;SDS011;38793;52.690;6.812;2022-07-06T13:29:46;1.02;;;0.10;;
52918;SDS011;38793;52.690;6.812;2022-07-06T13:34:37;2.65;;;0.10;;
52918;SDS011;38793;52.690;6.812;2022-07-06T13:39:29;5.18;;;0.20;;
52918;SDS011;38793;52.690;6.812;2022-07-06T13:41:55;0.82;;;0.03;;
52918;SDS011;38793;52.690;6.812;2022-07-06T13:46:47;2.75;;;0.10;;
52918;SDS011;38793;52.690;6.812;2022-07-06T13:51:38;2.38;;;0.20;;
52918;SDS011;38793;52.690;6.812;2022-07-06T13:54:04;2.05;;;0.10;;
52918;SDS011;38793;52.690;6.812;2022-07-06T13:56:30;1.65;;;0.10;;
52918;SDS011;38793;52.690;6.812;2022-07-06T14:01:22;3.03;;;0.28;;
52918;SDS011;38793;52.690;6.812;2022-07-06T14:06:13;3.08;;;0.20;;
52918;SDS011;38793;52.690;6.812;2022-07-06T14:08:39;2.17;;;0.10;;
52918;SDS011;38793;52.690;6.812;2022-07-06T14:11:06;3.50;;;0.20;;
52918;SDS011;38793;52.690;6.812;2022-07-06T14:13:32;1.20;;;0.10;;
52918;SDS011;38793;52.690;6.812;2022-07-06T14:15:59;1.10;;;0.10;;
52918;SDS011;38793;52.690;6.812;2022-07-06T14:18:25;2.92;;;0.40;;
52918;SDS011;38793;52.690;6.812;2022-07-06T14:23:17;1.98;;;0.10;;
52918;SDS011;38793;52.690;6.812;2022-07-06T14:25:43;2.03;;;0.10;;
52918;SDS011;38793;52.690;6.812;2022-07-06T14:28:10;4.30;;;0.30;;
52918;SDS011;38793;52.690;6.812;2022-07-06T14:30:38;3.92;;;0.10;;
52918;SDS011;38793;52.690;6.812;2022-07-06T14:33:08;0.70;;;0.10;;
52918;SDS011;38793;52.690;6.812;2022-07-06T14:35:34;3.60;;;0.73;;
52918;SDS011;38793;52.690;6.812;2022-07-06T14:38:02;3.03;;;0.30;;
52918;SDS011;38793;52.690;6.812;2022-07-06T14:40:28;1.95;;;0.20;;
52918;SDS011;38793;52.690;6.812;2022-07-06T14:42:58;1.55;;;0.10;;
52918;SDS011;38793;52.690;6.812;2022-07-06T14:45:24;0.90;;;0.20;;
52918;SDS011;38793;52.690;6.812;2022-07-06T14:50:16;1.73;;;0.28;;
52918;SDS011;38793;52.690;6.812;2022-07-06T14:55:07;0.47;;;0.10;;
52918;SDS011;38793;52.690;6.812;2022-07-06T14:59:59;1.55;;;0.20;;
52918;SDS011;38793;52.690;6.812;2022-07-06T15:02:25;0.77;;;0.20;;
52918;SDS011;38793;52.690;6.812;2022-07-06T15:07:16;1.10;;;0.30;;
52918;SDS011;38793;52.690;6.812;2022-07-06T15:12:07;2.75;;;0.40;;
52918;SDS011;38793;52.690;6.812;2022-07-06T15:14:33;1.33;;;0.30;;
52918;SDS011;38793;52.690;6.812;2022-07-06T15:16:59;1.67;;;0.15;;
52918;SDS011;38793;52.690;6.812;2022-07-06T15:19:25;2.50;;;0.20;;
52918;SDS011;38793;52.690;6.812;2022-07-06T15:21:52;0.82;;;0.20;;
52918;SDS011;38793;52.690;6.812;2022-07-06T15:24:18;3.30;;;0.22;;
52918;SDS011;38793;52.690;6.812;2022-07-06T15:26:44;1.75;;;0.20;;
52918;SDS011;38793;52.690;6.812;2022-07-06T15:31:35;1.00;;;0.25;;
52918;SDS011;38793;52.690;6.812;2022-07-06T15:36:26;1.05;;;0.20;;
52918;SDS011;38793;52.690;6.812;2022-07-06T15:41:17;1.17;;;0.20;;
52918;SDS011;38793;52.690;6.812;2022-07-06T15:43:43;2.33;;;0.22;;
52918;SDS011;38793;52.690;6.812;2022-07-06T15:46:09;1.10;;;0.40;;
52918;SDS011;38793;52.690;6.812;2022-07-06T15:48:36;7.50;;;0.60;;
52918;SDS011;38793;52.690;6.812;2022-07-06T15:51:02;5.10;;;0.55;;
52918;SDS011;38793;52.690;6.812;2022-07-06T15:53:28;2.65;;;0.43;;
52918;SDS011;38793;52.690;6.812;2022-07-06T15:55:53;4.57;;;0.38;;
52918;SDS011;38793;52.690;6.812;2022-07-06T15:58:20;0.90;;;0.50;;
52918;SDS011;38793;52.690;6.812;2022-07-06T16:00:46;3.63;;;0.47;;
52918;SDS011;38793;52.690;6.812;2022-07-06T16:03:12;1.70;;;0.45;;
52918;SDS011;38793;52.690;6.812;2022-07-06T16:05:37;5.72;;;0.32;;
52918;SDS011;38793;52.690;6.812;2022-07-06T16:08:03;1.70;;;0.30;;
52918;SDS011;38793;52.690;6.812;2022-07-06T16:12:54;2.67;;;0.30;;
52918;SDS011;38793;52.690;6.812;2022-07-06T16:17:46;4.93;;;0.50;;
52918;SDS011;38793;52.690;6.812;2022-07-06T16:20:12;2.08;;;0.35;;
52918;SDS011;38793;52.690;6.812;2022-07-06T16:22:39;3.75;;;0.50;;